ADDS METAR Data INFO
IDs: Format: Raw Decoded Include TAF

Data at: 0933 UTC 11 Dec 2017

KDDC 110852Z AUTO 27011KT 10SM CLR 04/M14 A3022 RMK AO2 SLP225 T00391144 58011
KDDC 110752Z AUTO 27013KT 10SM CLR 05/M14 A3022 RMK AO2 SLP228 T00501139
KDDC 110652Z AUTO 27012KT 10SM CLR 06/M14 A3024 RMK AO2 SLP234 T00611144
KDDC 110552Z AUTO 27011KT 10SM CLR 06/M14 A3025 RMK AO2 SLP240 T00611139 10100 20050 401941017 56005
KDDC 110452Z AUTO 27010KT 10SM CLR 06/M13 A3025 RMK AO2 SLP243 T00611133
KDDC 110352Z AUTO 26010KT 10SM CLR 08/M13 A3026 RMK AO2 SLP245 T00781128
KDDC 110252Z AUTO 26010KT 10SM CLR 07/M14 A3027 RMK AO2 SLP256 T00671139 50000
KDDC 110152Z AUTO 25008KT 10SM CLR 08/M13 A3027 RMK AO2 SLP260 T00781133
KDDC 110052Z AUTO 27008KT 10SM CLR 07/M14 A3027 RMK AO2 SLP261 T00721139
KDDC 102352Z AUTO 27008KT 10SM CLR 09/M13 A3027 RMK AO2 SLP255 T00891133 10194 20083 57006
KDDC 102252Z AUTO 30005KT 10SM CLR 14/M12 A3027 RMK AO2 SLP254 T01441122
KDDC 102152Z AUTO 30008KT 10SM CLR 18/M12 A3028 RMK AO2 SLP251 T01831122
KDDC 102052Z AUTO 31006KT 10SM CLR 19/M12 A3029 RMK AO2 SLP254 T01891122 56017
KDDC 101952Z AUTO 34007KT 10SM CLR 19/M12 A3030 RMK AO2 SLP255 T01891122
KDDC 101852Z AUTO 32011KT 10SM CLR 18/M12 A3032 RMK AO2 SLP266 T01781117
KDDC 101752Z AUTO 32014KT 10SM CLR 16/M12 A3034 RMK AO2 SLP273 T01561117 10156 21017 50003
KDDC 101652Z AUTO 31012KT 10SM CLR 13/M12 A3036 RMK AO2 SLP281 T01281122
KDDC 101552Z AUTO 31014KT 10SM CLR 09/M12 A3035 RMK AO2 SLP282 T00941122
KDDC 101452Z AUTO 30012KT 10SM CLR 04/M13 A3033 RMK AO2 SLP282 T00391128 53014
KDDC 101352Z AUTO 26011KT 10SM CLR M01/M13 A3032 RMK AO2 SLP282 T10061128
KDDC 101252Z AUTO 27011KT 10SM CLR M01/M13 A3030 RMK AO2 SLP279 T10111128
KDDC 101152Z AUTO 29014KT 10SM CLR 02/M13 A3029 RMK AO2 SLP268 T00221128 10044 20006 55000
KDDC 101052Z AUTO 28013KT 10SM CLR 01/M13 A3029 RMK AO2 SLP261 T00111128
KDDC 100952Z AUTO 29014KT 10SM CLR 02/M12 A3029 RMK AO2 SLP259 T00221122
KDDC 100852Z AUTO 28011KT 10SM CLR 01/M12 A3029 RMK AO2 SLP261 T00111122 55000
KDDC 100752Z AUTO 29013KT 10SM CLR 04/M12 A3028 RMK AO2 SLP255 T00391122
KDDC 100652Z AUTO 28012KT 10SM CLR 01/M11 A3029 RMK AO2 SLP261 T00061111
KDDC 100552Z AUTO 26014KT 10SM CLR 04/M11 A3029 RMK AO2 SLP260 T00441106 10056 20011 401331017 53004
KDDC 100452Z AUTO 27014KT 10SM CLR 04/M10 A3028 RMK AO2 SLP259 T00441100
KDDC 100352Z AUTO 26009KT 10SM CLR 03/M11 A3028 RMK AO2 SLP263 T00281106
KDDC 100252Z AUTO 25007KT 10SM CLR 03/M10 A3028 RMK AO2 SLP266 T00331100 53007
KDDC 100152Z AUTO 25008KT 10SM CLR 04/M10 A3027 RMK AO2 SLP266 T00391100
KDDC 100052Z AUTO 29008KT 10SM CLR 02/M11 A3026 RMK AO2 SLP265 T00171111
KDDC 092352Z AUTO 30006KT 10SM CLR 04/M11 A3026 RMK AO2 SLP260 T00441111 10133 20044 51001
KDDC 092252Z AUTO 33005KT 10SM CLR 11/M10 A3026 RMK AO2 SLP252 T01061100
KDDC 092152Z AUTO 34010KT 10SM CLR 13/M09 A3026 RMK AO2 SLP249 T01331094